CTF3 weather

Causapscal Airport
Causapscal, Quebec, Canada

Public forecast

Using degrees Celsius for public forecast. Weather courtesy of forecast.io.

METAR (pilot weather report)

Closest report is Mont Joli Airport, 42.1 nm (77.9 km) WNW. Retrieved 2019/05/19 23:00 UTC (52 minutes ago):

CYYY 192300Z 09006KT 30SM FEW100 OVC150 12/02 A3003 RMK AC1AS7 SLP171

TAF (pilot weather forecast)

Closest forecast is Mont Joli Airport, 42.1 nm (77.9 km) WNW. Retrieved 2019/05/19 20:00 UTC (4 hours ago):

TAF CYYY 191938Z 1920/2008 04010KT P6SM FEW030 BKN140 BECMG 1922/1924 07007KT FM200300 09008KT P6SM FEW020 OVC040 TEMPO 2003/2008 3SM -RA BR OVC020 BECMG 2004/2006 11010G20KT RMK NXT FCST BY 200200Z